createdAt,value
2023-02-11T00:01:31.560Z,18.63
2023-02-11T00:03:03.368Z,16.88
2023-02-11T00:04:34.946Z,15.50
2023-02-11T00:06:11.124Z,17.77
2023-02-11T00:07:42.754Z,18.33
2023-02-11T00:09:14.343Z,16.83
2023-02-11T00:10:46.530Z,16.33
2023-02-11T00:12:19.677Z,17.08
2023-02-11T00:13:52.291Z,15.95
2023-02-11T00:15:23.983Z,17.17
2023-02-11T00:16:55.534Z,15.18
2023-02-11T00:18:27.838Z,17.60
2023-02-11T00:19:59.468Z,17.90
2023-02-11T00:21:31.045Z,17.85
2023-02-11T00:23:02.769Z,17.30
2023-02-11T00:24:35.667Z,17.30
2023-02-11T00:26:15.645Z,18.38
2023-02-11T00:27:47.623Z,18.40
2023-02-11T00:29:19.180Z,19.90
2023-02-11T00:31:01.693Z,17.70
2023-02-11T00:32:34.255Z,18.05
2023-02-11T00:34:05.969Z,15.13
2023-02-11T00:35:38.670Z,17.52
2023-02-11T00:37:13.646Z,19.20
2023-02-11T00:38:47.731Z,17.17
2023-02-11T00:40:19.631Z,16.40
2023-02-11T00:41:51.324Z,16.67
2023-02-11T00:43:23.291Z,18.10
2023-02-11T00:44:55.568Z,17.90
2023-02-11T00:46:27.401Z,21.08
2023-02-11T00:47:59.065Z,18.85
2023-02-11T00:49:33.001Z,21.02
2023-02-11T00:51:05.366Z,19.08
2023-02-11T00:52:37.014Z,18.75
2023-02-11T00:54:08.667Z,19.15
2023-02-11T00:55:40.504Z,21.30
2023-02-11T00:57:12.177Z,19.02
2023-02-11T00:58:43.912Z,17.73
2023-02-11T01:00:15.975Z,20.02
2023-02-11T01:01:49.274Z,19.08
2023-02-11T01:03:21.008Z,17.92
2023-02-11T01:04:53.005Z,19.90
2023-02-11T01:06:24.894Z,18.08
2023-02-11T01:07:56.602Z,19.45
2023-02-11T01:09:28.502Z,19.77
2023-02-11T01:11:03.074Z,18.80
2023-02-11T01:12:36.519Z,20.25
2023-02-11T01:14:09.184Z,18.50
2023-02-11T01:15:40.949Z,19.10
2023-02-11T01:17:12.903Z,18.90
2023-02-11T01:18:44.789Z,19.80
2023-02-11T01:20:22.493Z,18.55
2023-02-11T01:21:54.151Z,15.55
2023-02-11T01:23:26.991Z,17.02
2023-02-11T01:24:58.591Z,18.27
2023-02-11T01:26:30.377Z,18.20
2023-02-11T01:28:03.303Z,19.85
2023-02-11T01:29:35.811Z,19.08
2023-02-11T01:31:07.535Z,16.88
2023-02-11T01:32:39.917Z,18.15
2023-02-11T01:34:13.851Z,16.98
2023-02-11T01:35:46.753Z,18.52
2023-02-11T01:37:18.550Z,16.27
2023-02-11T01:38:50.645Z,16.48
2023-02-11T01:40:25.163Z,18.00
2023-02-11T01:41:56.824Z,18.67
2023-02-11T01:43:32.851Z,19.00
2023-02-11T01:45:39.556Z,19.55
2023-02-11T01:47:11.688Z,18.98
2023-02-11T01:48:47.825Z,19.15
2023-02-11T01:50:19.574Z,22.02
2023-02-11T01:51:58.156Z,20.88
2023-02-11T01:53:50.730Z,19.55
2023-02-11T01:55:41.028Z,19.63
2023-02-11T01:57:22.116Z,18.48
2023-02-11T01:58:59.601Z,18.55
2023-02-11T02:00:39.083Z,19.67
2023-02-11T02:02:13.746Z,20.27
2023-02-11T02:03:48.549Z,18.27
2023-02-11T02:05:20.309Z,19.70
2023-02-11T02:06:57.974Z,19.70
2023-02-11T02:08:44.825Z,19.25
2023-02-11T02:10:21.007Z,20.23
2023-02-11T02:11:52.741Z,19.92
2023-02-11T02:13:24.894Z,18.83
2023-02-11T02:15:19.759Z,20.70
2023-02-11T02:16:51.384Z,18.40
2023-02-11T02:18:41.169Z,19.38
2023-02-11T02:20:27.370Z,18.65
2023-02-11T02:22:36.319Z,18.88
2023-02-11T02:24:31.610Z,17.45
2023-02-11T02:26:26.655Z,18.20
2023-02-11T02:28:29.060Z,16.42
2023-02-11T02:30:06.854Z,17.90
2023-02-11T02:31:56.825Z,17.80
2023-02-11T02:33:56.460Z,20.00
2023-02-11T02:35:34.121Z,18.67
2023-02-11T02:37:16.423Z,17.13
2023-02-11T02:39:09.118Z,19.67
2023-02-11T02:40:53.213Z,17.60
2023-02-11T02:42:25.861Z,18.75
2023-02-11T02:43:57.824Z,19.20
2023-02-11T02:45:29.467Z,19.70
2023-02-11T02:47:01.143Z,21.35
2023-02-11T02:48:35.808Z,18.73
2023-02-11T02:50:09.723Z,18.90
2023-02-11T02:51:47.746Z,19.73
2023-02-11T02:53:53.261Z,18.20
2023-02-11T02:56:12.811Z,18.27
2023-02-11T02:57:56.208Z,17.92
2023-02-11T02:59:33.947Z,16.63
2023-02-11T03:01:30.221Z,17.20
2023-02-11T03:03:23.409Z,18.02
2023-02-11T03:05:10.343Z,14.93
2023-02-11T03:07:06.888Z,18.42
2023-02-11T03:08:46.833Z,18.77
2023-02-11T03:10:36.220Z,17.73
2023-02-11T03:12:10.427Z,16.92
2023-02-11T03:13:44.358Z,17.95
2023-02-11T03:15:18.966Z,20.10
2023-02-11T03:16:53.145Z,19.83
2023-02-11T03:18:28.957Z,19.00
2023-02-11T03:20:02.857Z,19.38
2023-02-11T03:21:37.903Z,18.08
2023-02-11T03:23:21.982Z,20.05
2023-02-11T03:24:55.959Z,17.73
2023-02-11T03:26:27.544Z,18.83
2023-02-11T03:27:59.160Z,19.60
2023-02-11T03:29:33.628Z,19.15
2023-02-11T03:31:11.403Z,17.40
2023-02-11T03:32:51.414Z,16.25
2023-02-11T03:34:44.861Z,19.55
2023-02-11T03:36:23.977Z,20.63
2023-02-11T03:38:00.573Z,17.60
2023-02-11T03:39:39.599Z,19.65
2023-02-11T03:41:14.055Z,17.40
2023-02-11T03:42:50.969Z,19.80
2023-02-11T03:44:26.461Z,18.88
2023-02-11T03:45:59.593Z,19.83
2023-02-11T03:47:35.321Z,17.75
2023-02-11T03:49:12.034Z,18.20
2023-02-11T03:50:46.646Z,19.75
2023-02-11T03:52:19.269Z,19.63
2023-02-11T03:53:54.700Z,18.05
2023-02-11T03:55:28.586Z,19.67
2023-02-11T03:57:02.249Z,18.25
2023-02-11T03:58:33.985Z,18.90
2023-02-11T04:00:07.058Z,19.95
2023-02-11T04:01:43.383Z,20.10
2023-02-11T04:03:15.132Z,17.33
2023-02-11T04:04:47.514Z,19.42
2023-02-11T04:06:19.187Z,18.45
2023-02-11T04:07:50.890Z,18.15
2023-02-11T04:09:22.475Z,17.92
2023-02-11T04:10:54.119Z,16.80
2023-02-11T04:12:26.145Z,17.70
2023-02-11T04:13:57.801Z,18.63
2023-02-11T04:15:29.558Z,18.33
2023-02-11T04:17:01.287Z,18.92
2023-02-11T04:18:32.894Z,17.70
2023-02-11T04:20:05.134Z,17.85
2023-02-11T04:21:36.719Z,18.95
2023-02-11T04:23:08.365Z,17.98
2023-02-11T04:24:39.926Z,20.15
2023-02-11T04:26:11.655Z,18.60
2023-02-11T04:27:43.256Z,19.30
2023-02-11T04:29:14.864Z,18.92
2023-02-11T04:30:46.524Z,16.95
2023-02-11T04:32:18.115Z,15.88
2023-02-11T04:33:49.682Z,13.88
2023-02-11T04:35:21.574Z,15.90
2023-02-11T04:36:53.224Z,15.40
2023-02-11T04:38:24.835Z,17.23
2023-02-11T04:39:56.568Z,16.45
2023-02-11T04:41:28.188Z,17.40
2023-02-11T04:42:59.830Z,16.85
2023-02-11T04:44:31.551Z,17.85
2023-02-11T04:46:03.177Z,17.08
2023-02-11T04:47:35.111Z,17.08
2023-02-11T04:49:06.739Z,16.17
2023-02-11T04:50:38.349Z,15.30
2023-02-11T04:52:10.363Z,16.52
2023-02-11T04:53:45.175Z,18.60
2023-02-11T04:55:16.891Z,17.77
2023-02-11T04:56:49.704Z,18.77
2023-02-11T04:58:21.427Z,17.10
2023-02-11T04:59:53.000Z,17.10
2023-02-11T05:01:24.646Z,18.70
2023-02-11T05:02:56.218Z,18.90
2023-02-11T05:04:27.945Z,18.25
2023-02-11T05:05:59.599Z,19.45
2023-02-11T05:07:31.169Z,19.35
2023-02-11T05:09:02.770Z,18.95
2023-02-11T05:10:34.832Z,16.40
2023-02-11T05:12:06.648Z,18.88
2023-02-11T05:13:38.314Z,19.83
2023-02-11T05:15:10.080Z,18.30
2023-02-11T05:16:41.670Z,18.42
2023-02-11T05:18:14.932Z,17.75
2023-02-11T05:19:46.588Z,19.73
2023-02-11T05:21:19.519Z,17.42
2023-02-11T05:22:51.082Z,17.00
2023-02-11T05:24:22.632Z,17.38
2023-02-11T05:25:54.188Z,19.48
2023-02-11T05:27:25.825Z,18.85
2023-02-11T05:28:57.381Z,18.63
2023-02-11T05:30:29.416Z,18.58
2023-02-11T05:32:01.050Z,18.30
2023-02-11T05:33:33.240Z,18.40
2023-02-11T05:35:05.257Z,16.92
2023-02-11T05:36:36.910Z,17.45
2023-02-11T05:38:08.557Z,17.40
2023-02-11T05:39:40.199Z,18.63
2023-02-11T05:41:12.411Z,18.25
2023-02-11T05:42:44.045Z,19.90
2023-02-11T05:44:15.636Z,20.05
2023-02-11T05:45:47.277Z,20.55
2023-02-11T05:47:18.859Z,17.83
2023-02-11T05:48:51.279Z,18.17
2023-02-11T05:50:22.884Z,18.73
2023-02-11T05:51:57.379Z,18.90
2023-02-11T05:53:29.037Z,17.85
2023-02-11T05:55:00.574Z,18.25
2023-02-11T05:56:32.176Z,18.20
2023-02-11T05:58:04.337Z,18.20
2023-02-11T05:59:35.958Z,17.02
2023-02-11T06:01:07.492Z,20.13
2023-02-11T06:02:39.323Z,17.83
2023-02-11T06:04:11.089Z,19.35
2023-02-11T06:05:43.819Z,20.30
2023-02-11T06:07:15.456Z,19.38
2023-02-11T06:08:47.109Z,19.27
2023-02-11T06:10:19.690Z,18.75
2023-02-11T06:11:51.341Z,18.73
2023-02-11T06:13:22.911Z,19.52
2023-02-11T06:14:54.458Z,17.55
2023-02-11T06:16:26.086Z,18.25
2023-02-11T06:17:57.694Z,17.80
2023-02-11T06:19:29.295Z,19.70
2023-02-11T06:21:01.216Z,17.67
2023-02-11T06:22:34.055Z,18.73
2023-02-11T06:24:06.997Z,18.13
2023-02-11T06:25:38.699Z,18.73
2023-02-11T06:27:10.230Z,17.13
2023-02-11T06:28:42.131Z,20.13
2023-02-11T06:30:14.386Z,17.70
2023-02-11T06:31:46.082Z,20.63
2023-02-11T06:33:17.732Z,19.23
2023-02-11T06:34:49.322Z,16.90
2023-02-11T06:36:22.386Z,20.05
2023-02-11T06:37:54.585Z,18.45
2023-02-11T06:39:26.166Z,18.27
2023-02-11T06:40:57.696Z,18.65
2023-02-11T06:42:29.222Z,19.05
2023-02-11T06:44:00.946Z,18.15
2023-02-11T06:45:32.516Z,19.15
2023-02-11T06:47:04.398Z,19.35
2023-02-11T06:48:36.182Z,20.73
2023-02-11T06:50:12.617Z,19.45
2023-02-11T06:51:44.149Z,19.27
2023-02-11T06:53:15.750Z,18.13
2023-02-11T06:54:47.319Z,17.67
2023-02-11T06:56:22.042Z,19.83
2023-02-11T06:57:53.682Z,19.85
2023-02-11T06:59:25.304Z,18.98
2023-02-11T07:00:56.855Z,20.35
2023-02-11T07:02:28.497Z,19.10
2023-02-11T07:04:00.166Z,18.48
2023-02-11T07:05:31.790Z,19.23
2023-02-11T07:07:03.458Z,18.88
2023-02-11T07:08:37.538Z,17.63
2023-02-11T07:10:09.328Z,18.20
2023-02-11T07:11:40.891Z,19.20
2023-02-11T07:13:12.485Z,17.88
2023-02-11T07:14:44.139Z,17.48
2023-02-11T07:16:17.595Z,17.88
2023-02-11T07:17:49.220Z,17.83
2023-02-11T07:19:21.087Z,18.52
2023-02-11T07:20:52.672Z,18.77
2023-02-11T07:22:24.282Z,19.17
2023-02-11T07:23:55.927Z,17.92
2023-02-11T07:25:27.552Z,17.88
2023-02-11T07:26:59.136Z,17.73
2023-02-11T07:28:31.385Z,17.77
2023-02-11T07:30:06.961Z,18.92
2023-02-11T07:31:39.074Z,17.75
2023-02-11T07:33:10.752Z,20.17
2023-02-11T07:34:42.408Z,19.80
2023-02-11T07:36:15.926Z,17.83
2023-02-11T07:37:47.518Z,22.10
2023-02-11T07:39:20.257Z,20.25
2023-02-11T07:40:51.788Z,21.55
2023-02-11T07:42:23.409Z,17.98
2023-02-11T07:43:55.732Z,20.58
2023-02-11T07:45:27.343Z,16.58
2023-02-11T07:46:59.805Z,18.52
2023-02-11T07:48:31.650Z,19.85
2023-02-11T07:50:03.428Z,19.10
2023-02-11T07:51:35.011Z,17.75
2023-02-11T07:53:06.558Z,19.67
2023-02-11T07:54:38.254Z,17.00
2023-02-11T07:56:11.083Z,18.45
2023-02-11T07:57:42.695Z,19.50
2023-02-11T07:59:14.335Z,17.90
2023-02-11T08:00:46.060Z,18.42
2023-02-11T08:02:17.712Z,19.73
2023-02-11T08:03:49.629Z,19.00
2023-02-11T08:05:21.198Z,18.08
2023-02-11T08:06:56.499Z,19.13
2023-02-11T08:08:29.509Z,20.40
2023-02-11T08:10:01.100Z,19.27
2023-02-11T08:11:32.903Z,19.23
2023-02-11T08:13:04.563Z,19.88
2023-02-11T08:14:36.357Z,21.05
2023-02-11T08:16:08.879Z,20.33
2023-02-11T08:17:40.508Z,18.63
2023-02-11T08:19:15.185Z,20.25
2023-02-11T08:20:46.831Z,21.65
2023-02-11T08:22:18.455Z,19.92
2023-02-11T08:23:50.515Z,20.55
2023-02-11T08:25:22.226Z,19.13
2023-02-11T08:26:53.888Z,21.88
2023-02-11T08:28:25.655Z,23.02
2023-02-11T08:29:59.507Z,19.98
2023-02-11T08:31:35.669Z,17.95
2023-02-11T08:34:38.947Z,18.40
2023-02-11T08:36:19.819Z,18.77
2023-02-11T08:37:52.587Z,20.20
2023-02-11T08:39:24.346Z,20.02
2023-02-11T08:40:56.021Z,20.02
2023-02-11T08:42:27.684Z,19.33
2023-02-11T08:43:59.447Z,19.58
2023-02-11T08:45:31.055Z,19.55
2023-02-11T08:47:02.762Z,19.70
2023-02-11T08:48:34.574Z,20.65
2023-02-11T08:50:06.866Z,19.75
2023-02-11T08:51:38.510Z,19.05
2023-02-11T08:53:10.087Z,17.50
2023-02-11T08:54:41.733Z,21.90
2023-02-11T08:56:14.928Z,19.15
2023-02-11T08:57:46.554Z,19.33
2023-02-11T08:59:18.189Z,20.73
2023-02-11T09:00:50.583Z,18.90
2023-02-11T09:02:22.440Z,18.40
2023-02-11T09:03:54.354Z,19.73
2023-02-11T09:05:27.560Z,19.58
2023-02-11T09:06:59.158Z,18.75
2023-02-11T09:08:30.816Z,18.30
2023-02-11T09:10:02.530Z,20.45
2023-02-11T09:11:35.636Z,18.65
2023-02-11T09:13:08.342Z,17.17
2023-02-11T09:14:41.337Z,18.98
2023-02-11T09:16:22.355Z,17.25
2023-02-11T09:17:54.115Z,18.45
2023-02-11T09:19:25.789Z,20.58
2023-02-11T09:21:05.520Z,19.55
2023-02-11T09:22:37.159Z,22.02
2023-02-11T09:24:08.786Z,19.15
2023-02-11T09:25:41.242Z,20.40
2023-02-11T09:27:12.837Z,19.33
2023-02-11T09:28:45.020Z,20.83
2023-02-11T09:30:16.989Z,20.65
2023-02-11T09:31:48.974Z,18.15
2023-02-11T09:33:20.757Z,20.48
2023-02-11T09:34:52.474Z,18.95
2023-02-11T09:36:26.273Z,19.15
2023-02-11T09:37:57.846Z,19.10
2023-02-11T09:39:29.914Z,19.30
2023-02-11T09:41:04.062Z,19.77
2023-02-11T09:42:46.599Z,19.45
2023-02-11T09:44:24.995Z,20.10
2023-02-11T09:45:57.533Z,19.02
2023-02-11T09:47:33.075Z,19.17
2023-02-11T09:49:06.241Z,18.40
2023-02-11T09:51:02.634Z,18.17
2023-02-11T09:53:02.027Z,17.77
2023-02-11T09:54:39.134Z,17.88
2023-02-11T09:56:14.193Z,19.05
2023-02-11T09:57:45.822Z,19.50
2023-02-11T09:59:18.661Z,18.95
2023-02-11T10:01:24.043Z,19.27
2023-02-11T10:03:19.677Z,17.70
2023-02-11T10:05:16.033Z,19.25
2023-02-11T10:06:50.420Z,18.10
2023-02-11T10:08:27.912Z,17.23
2023-02-11T10:10:14.424Z,18.45
2023-02-11T10:12:01.309Z,17.17
2023-02-11T10:13:42.128Z,18.38
2023-02-11T10:15:26.082Z,17.83
2023-02-11T10:17:31.747Z,19.58
2023-02-11T10:19:11.301Z,18.50
2023-02-11T10:20:57.948Z,17.30
2023-02-11T10:22:47.171Z,18.67
2023-02-11T10:24:19.941Z,17.17
2023-02-11T10:25:54.621Z,17.50
2023-02-11T10:27:35.464Z,18.02
2023-02-11T10:29:28.998Z,19.40
2023-02-11T10:31:09.660Z,18.30
2023-02-11T10:33:14.909Z,15.23
2023-02-11T10:34:47.120Z,16.90
2023-02-11T10:36:23.835Z,15.23
2023-02-11T10:37:56.196Z,15.50
2023-02-11T10:39:28.495Z,15.88
2023-02-11T10:41:00.251Z,16.13
2023-02-11T10:42:31.870Z,14.65
2023-02-11T10:44:06.999Z,15.52
2023-02-11T10:45:43.166Z,15.55
2023-02-11T10:47:22.025Z,15.18
2023-02-11T10:48:54.305Z,15.75
2023-02-11T10:50:32.536Z,16.45
2023-02-11T10:52:27.926Z,15.23
2023-02-11T10:54:06.242Z,15.23
2023-02-11T10:55:37.889Z,15.68
2023-02-11T10:57:20.005Z,13.65
2023-02-11T10:58:56.841Z,14.55
2023-02-11T11:00:40.593Z,13.50
2023-02-11T11:02:32.095Z,12.13
2023-02-11T11:04:03.918Z,13.32
2023-02-11T11:05:45.638Z,12.57
2023-02-11T11:07:23.017Z,13.30
2023-02-11T11:08:54.799Z,13.73
2023-02-11T11:10:45.972Z,12.82
2023-02-11T11:12:36.602Z,11.55
2023-02-11T11:14:20.409Z,11.20
2023-02-11T11:16:13.998Z,11.02
2023-02-11T11:17:46.176Z,11.68
2023-02-11T11:19:23.592Z,12.15
2023-02-11T11:21:13.027Z,10.73
2023-02-11T11:22:50.688Z,10.82
2023-02-11T11:24:39.070Z,10.77
2023-02-11T11:26:12.428Z,10.07
2023-02-11T11:27:49.850Z,10.23
2023-02-11T11:29:33.345Z,11.70
2023-02-11T11:31:13.034Z,10.50
2023-02-11T11:32:45.014Z,11.35
2023-02-11T11:34:31.768Z,10.57
2023-02-11T11:36:08.505Z,10.18
2023-02-11T11:37:40.120Z,9.98
2023-02-11T11:39:29.811Z,10.02
2023-02-11T11:41:17.467Z,8.95
2023-02-11T11:43:02.644Z,11.38
2023-02-11T11:44:37.080Z,10.68
2023-02-11T11:46:09.867Z,11.23
2023-02-11T11:47:45.269Z,10.25
2023-02-11T11:49:30.081Z,9.75
2023-02-11T11:51:05.290Z,11.02
2023-02-11T11:52:48.934Z,10.75
2023-02-11T11:54:20.750Z,10.30
2023-02-11T11:56:11.466Z,9.95
2023-02-11T11:57:43.361Z,10.75
2023-02-11T11:59:16.676Z,8.55
2023-02-11T12:00:48.478Z,9.73
2023-02-11T12:02:31.940Z,8.45
2023-02-11T12:04:23.174Z,9.43
2023-02-11T12:06:07.195Z,8.90
2023-02-11T12:08:03.293Z,8.95
2023-02-11T12:09:37.817Z,9.50
2023-02-11T12:11:37.536Z,8.65
2023-02-11T12:13:33.916Z,8.82
2023-02-11T12:15:15.345Z,7.82
2023-02-11T12:17:19.266Z,7.75
2023-02-11T12:19:02.791Z,8.63
2023-02-11T12:20:52.489Z,8.88
2023-02-11T12:22:46.802Z,8.35
2023-02-11T12:24:41.669Z,7.72
2023-02-11T12:26:42.603Z,8.85
2023-02-11T12:28:28.002Z,9.00
2023-02-11T12:30:02.625Z,8.95
2023-02-11T12:31:40.235Z,8.98
2023-02-11T12:33:33.235Z,8.10
2023-02-11T12:35:32.582Z,9.05
2023-02-11T12:37:22.984Z,8.15
2023-02-11T12:39:13.325Z,10.23
2023-02-11T12:40:53.902Z,8.80
2023-02-11T12:42:43.915Z,9.00
2023-02-11T12:44:38.778Z,8.05
2023-02-11T12:46:10.838Z,8.25
2023-02-11T12:48:13.458Z,8.25
2023-02-11T12:50:09.113Z,7.88
2023-02-11T12:51:58.937Z,7.35
2023-02-11T12:53:53.861Z,7.70
2023-02-11T12:57:02.599Z,7.65
2023-02-11T12:58:44.892Z,6.93
2023-02-11T13:00:22.224Z,8.27
2023-02-11T13:01:56.006Z,7.88
2023-02-11T13:03:39.211Z,6.38
2023-02-11T13:05:26.264Z,6.60
2023-02-11T13:07:05.413Z,7.28
2023-02-11T13:08:49.521Z,6.63
2023-02-11T13:10:36.163Z,6.88
2023-02-11T13:12:31.478Z,6.63
2023-02-11T13:14:18.596Z,6.40
2023-02-11T13:15:54.185Z,8.07
2023-02-11T13:17:34.123Z,7.50
2023-02-11T13:19:32.024Z,7.63
2023-02-11T13:21:15.937Z,5.95
2023-02-11T13:23:04.432Z,7.05
2023-02-11T13:24:38.722Z,7.43
2023-02-11T13:26:19.613Z,7.05
2023-02-11T13:28:18.220Z,7.10
2023-02-11T13:29:56.337Z,7.18
2023-02-11T13:31:30.054Z,7.85
2023-02-11T13:33:04.880Z,7.32
2023-02-11T13:34:42.763Z,6.60
2023-02-11T13:36:40.897Z,7.28
2023-02-11T13:38:21.454Z,6.57
2023-02-11T13:40:22.186Z,6.93
2023-02-11T13:42:03.109Z,7.68
2023-02-11T13:43:36.386Z,7.05
2023-02-11T13:45:27.515Z,7.35
2023-02-11T13:47:05.284Z,7.57
2023-02-11T13:48:39.379Z,6.18
2023-02-11T13:50:23.855Z,8.23
2023-02-11T13:51:56.918Z,7.45
2023-02-11T13:53:29.777Z,6.97
2023-02-11T13:55:13.627Z,7.47
2023-02-11T13:56:46.320Z,7.32
2023-02-11T13:58:29.060Z,6.90
2023-02-11T14:00:07.266Z,6.72
2023-02-11T14:02:11.341Z,6.93
2023-02-11T14:04:37.378Z,7.95
2023-02-11T14:06:29.369Z,7.22
2023-02-11T14:08:28.660Z,7.40
2023-02-11T14:10:00.438Z,7.00
2023-02-11T14:11:41.026Z,7.35
2023-02-11T14:13:33.468Z,7.43
2023-02-11T14:15:11.124Z,7.18
2023-02-11T14:17:06.696Z,7.03
2023-02-11T14:18:44.272Z,6.97
2023-02-11T14:20:43.315Z,6.28
2023-02-11T14:22:16.575Z,6.70
2023-02-11T14:23:48.666Z,6.40
2023-02-11T14:25:25.473Z,7.07
2023-02-11T14:27:00.805Z,7.88
2023-02-11T14:28:34.490Z,7.07
2023-02-11T14:30:20.923Z,6.95
2023-02-11T14:32:05.404Z,8.07
2023-02-11T14:33:40.376Z,7.20
2023-02-11T14:35:21.068Z,6.72
2023-02-11T14:37:03.414Z,7.22
2023-02-11T14:40:33.463Z,7.07
2023-02-11T14:42:05.959Z,7.78
2023-02-11T14:43:45.380Z,7.38
2023-02-11T14:45:21.305Z,7.95
2023-02-11T14:46:54.932Z,7.55
2023-02-11T14:48:52.233Z,7.55
2023-02-11T14:50:33.741Z,6.75
2023-02-11T14:52:34.440Z,6.78
2023-02-11T14:54:15.233Z,6.82
2023-02-11T14:55:54.635Z,7.45
2023-02-11T14:57:27.753Z,6.72
2023-02-11T14:58:59.472Z,6.63
2023-02-11T15:00:31.153Z,7.22
2023-02-11T15:02:03.679Z,6.75
2023-02-11T15:03:39.966Z,7.15
2023-02-11T15:05:22.521Z,7.55
2023-02-11T15:06:55.787Z,7.20
2023-02-11T15:08:28.639Z,7.32
2023-02-11T15:10:00.429Z,7.22
2023-02-11T15:11:39.123Z,7.35
2023-02-11T15:13:21.644Z,8.27
2023-02-11T15:14:56.246Z,7.05
2023-02-11T15:16:28.962Z,8.18
2023-02-11T15:18:02.789Z,7.28
2023-02-11T15:19:41.033Z,7.88
2023-02-11T15:21:13.334Z,8.38
2023-02-11T15:22:47.393Z,9.18
2023-02-11T15:24:35.031Z,11.43
2023-02-11T15:26:21.917Z,11.95
2023-02-11T15:27:58.746Z,10.63
2023-02-11T15:29:43.019Z,10.35
2023-02-11T15:31:18.255Z,10.48
2023-02-11T15:32:51.815Z,11.65
2023-02-11T15:34:23.536Z,10.73
2023-02-11T15:35:55.485Z,11.27
2023-02-11T15:37:31.766Z,11.43
2023-02-11T15:39:29.044Z,11.80
2023-02-11T15:41:03.608Z,12.45
2023-02-11T15:42:50.682Z,13.60
2023-02-11T15:46:01.821Z,12.55
2023-02-11T15:47:33.509Z,12.20
2023-02-11T15:49:06.570Z,12.73
2023-02-11T15:50:41.012Z,12.98
2023-02-11T15:52:21.550Z,12.20
2023-02-11T15:53:57.033Z,11.27
2023-02-11T15:55:29.902Z,13.63
2023-02-11T15:57:08.422Z,12.40
2023-02-11T15:58:42.331Z,51.58
2023-02-11T16:00:17.677Z,28.05
2023-02-11T16:01:49.858Z,35.40
2023-02-11T16:03:23.381Z,16.25
2023-02-11T16:04:58.023Z,17.52
2023-02-11T16:06:35.513Z,19.92
2023-02-11T16:08:34.618Z,21.35
2023-02-11T16:10:22.697Z,28.73
2023-02-11T16:11:58.783Z,25.63
2023-02-11T16:13:33.687Z,17.80
2023-02-11T16:15:42.366Z,14.32
2023-02-11T16:17:25.415Z,18.52
2023-02-11T16:19:05.763Z,61.08
2023-02-11T16:20:37.837Z,22.45
2023-02-11T16:22:15.916Z,14.13
2023-02-11T16:23:53.659Z,16.92
2023-02-11T16:25:25.324Z,12.82
2023-02-11T16:27:00.129Z,13.93
2023-02-11T16:28:33.033Z,17.52
2023-02-11T16:30:05.619Z,43.05
2023-02-11T16:31:41.035Z,22.30
2023-02-11T16:33:12.762Z,13.55
2023-02-11T16:34:44.887Z,12.15
2023-02-11T16:36:19.366Z,91.05
2023-02-11T16:37:50.971Z,42.10
2023-02-11T16:39:22.962Z,14.60
2023-02-11T16:40:54.547Z,13.93
2023-02-11T16:42:26.214Z,28.85
2023-02-11T16:43:58.920Z,18.48
2023-02-11T16:45:30.579Z,17.92
2023-02-11T16:47:04.439Z,12.82
2023-02-11T16:48:37.648Z,12.95
2023-02-11T16:50:11.628Z,13.68
2023-02-11T16:51:50.202Z,12.02
2023-02-11T16:53:24.177Z,12.80
2023-02-11T16:54:55.942Z,12.55
2023-02-11T16:56:27.620Z,12.18
2023-02-11T16:57:59.509Z,13.40
2023-02-11T16:59:31.275Z,12.23
2023-02-11T17:01:03.178Z,12.80
2023-02-11T17:02:37.257Z,14.88
2023-02-11T17:04:16.775Z,15.00
2023-02-11T17:05:55.430Z,13.57
2023-02-11T17:07:28.708Z,12.48
2023-02-11T17:09:00.547Z,14.00
2023-02-11T17:10:32.535Z,13.57
2023-02-11T17:12:06.999Z,13.15
2023-02-11T17:13:39.557Z,14.80
2023-02-11T17:15:11.304Z,12.63
2023-02-11T17:16:43.839Z,14.43
2023-02-11T17:18:15.549Z,14.40
2023-02-11T17:19:47.920Z,13.68
2023-02-11T17:21:19.560Z,13.98
2023-02-11T17:22:51.558Z,13.70
2023-02-11T17:24:23.511Z,14.40
2023-02-11T17:25:56.491Z,12.60
2023-02-11T17:27:28.118Z,13.77
2023-02-11T17:28:59.855Z,13.70
2023-02-11T17:30:31.719Z,14.30
2023-02-11T17:32:03.605Z,15.70
2023-02-11T17:33:36.315Z,15.35
2023-02-11T17:35:08.105Z,14.70
2023-02-11T17:36:41.419Z,14.60
2023-02-11T17:38:13.102Z,14.95
2023-02-11T17:39:44.943Z,15.73
2023-02-11T17:41:17.045Z,15.32
2023-02-11T17:42:48.695Z,15.65
2023-02-11T17:44:20.515Z,15.05
2023-02-11T17:45:52.795Z,18.33
2023-02-11T17:47:25.121Z,18.25
2023-02-11T17:48:58.888Z,15.73
2023-02-11T17:50:30.575Z,17.48
2023-02-11T17:52:02.613Z,15.38
2023-02-11T17:53:34.301Z,15.40
2023-02-11T17:55:06.486Z,13.77
2023-02-11T17:56:41.927Z,16.63
2023-02-11T17:58:13.566Z,17.08
2023-02-11T17:59:45.325Z,14.75
2023-02-11T18:01:17.012Z,15.40
2023-02-11T18:02:50.909Z,19.42
2023-02-11T18:04:22.651Z,14.88
2023-02-11T18:05:54.565Z,15.68
2023-02-11T18:07:26.848Z,15.43
2023-02-11T18:08:59.827Z,15.90
2023-02-11T18:10:31.824Z,15.82
2023-02-11T18:12:03.542Z,15.50
2023-02-11T18:13:35.266Z,15.90
2023-02-11T18:15:07.121Z,13.63
2023-02-11T18:16:40.363Z,12.85
2023-02-11T18:18:12.476Z,15.40
2023-02-11T18:19:44.185Z,15.38
2023-02-11T18:21:18.405Z,15.65
2023-02-11T18:22:50.093Z,13.65
2023-02-11T18:24:21.830Z,13.93
2023-02-11T18:25:54.109Z,15.50
2023-02-11T18:27:25.930Z,15.73
2023-02-11T18:29:00.049Z,15.10
2023-02-11T18:30:34.710Z,15.15
2023-02-11T18:32:06.600Z,15.77
2023-02-11T18:33:40.176Z,15.70
2023-02-11T18:35:15.875Z,16.27
2023-02-11T18:36:48.895Z,15.15
2023-02-11T18:38:22.243Z,14.48
2023-02-11T18:39:53.901Z,15.65
2023-02-11T18:41:25.500Z,15.00
2023-02-11T18:42:57.154Z,14.85
2023-02-11T18:44:29.182Z,15.95
2023-02-11T18:46:02.336Z,15.07
2023-02-11T18:47:34.044Z,14.35
2023-02-11T18:49:06.347Z,15.15
2023-02-11T18:50:40.748Z,15.82
2023-02-11T18:52:12.375Z,17.13
2023-02-11T18:53:44.089Z,18.23
2023-02-11T18:55:16.322Z,19.15
2023-02-11T18:56:47.958Z,17.23
2023-02-11T18:58:21.184Z,17.23
2023-02-11T18:59:52.847Z,14.88
2023-02-11T19:01:27.366Z,15.52
2023-02-11T19:02:59.469Z,15.85
2023-02-11T19:04:31.158Z,14.82
2023-02-11T19:06:02.917Z,15.88
2023-02-11T19:07:34.553Z,14.43
2023-02-11T19:09:14.597Z,14.57
2023-02-11T19:10:47.952Z,14.38
2023-02-11T19:12:19.714Z,14.27
2023-02-11T19:13:51.873Z,14.23
2023-02-11T19:15:23.510Z,13.68
2023-02-11T19:16:58.002Z,14.32
2023-02-11T19:18:29.714Z,13.13
2023-02-11T19:20:01.374Z,12.02
2023-02-11T19:21:33.832Z,11.60
2023-02-11T19:23:05.492Z,11.93
2023-02-11T19:24:37.958Z,12.45
2023-02-11T19:26:09.555Z,13.40
2023-02-11T19:27:41.861Z,11.73
2023-02-11T19:29:13.706Z,14.60
2023-02-11T19:30:45.496Z,15.38
2023-02-11T19:32:17.113Z,13.75
2023-02-11T19:33:48.741Z,14.77
2023-02-11T19:35:20.333Z,14.27
2023-02-11T19:36:52.008Z,13.75
2023-02-11T19:38:23.653Z,14.88
2023-02-11T19:39:55.329Z,16.40
2023-02-11T19:41:28.073Z,13.40
2023-02-11T19:42:59.781Z,14.23
2023-02-11T19:44:31.541Z,14.57
2023-02-11T19:46:04.612Z,15.05
2023-02-11T19:47:36.722Z,14.02
2023-02-11T19:49:09.937Z,14.20
2023-02-11T19:50:41.565Z,14.05
2023-02-11T19:52:13.150Z,13.63
2023-02-11T19:53:45.333Z,14.57
2023-02-11T19:55:16.981Z,13.93
2023-02-11T19:56:49.111Z,15.45
2023-02-11T19:58:20.833Z,14.57
2023-02-11T19:59:54.862Z,14.73
2023-02-11T20:01:27.180Z,14.98
2023-02-11T20:02:59.095Z,14.75
2023-02-11T20:04:32.262Z,15.48
2023-02-11T20:06:09.436Z,15.65
2023-02-11T20:07:41.040Z,15.27
2023-02-11T20:09:14.838Z,15.60
2023-02-11T20:10:46.503Z,14.80
2023-02-11T20:12:18.138Z,15.32
2023-02-11T20:13:49.826Z,13.35
2023-02-11T20:15:21.622Z,15.15
2023-02-11T20:16:53.255Z,12.68
2023-02-11T20:18:24.834Z,14.85
2023-02-11T20:19:56.396Z,14.35
2023-02-11T20:21:30.809Z,15.63
2023-02-11T20:23:02.791Z,14.52
2023-02-11T20:24:34.451Z,13.95
2023-02-11T20:26:11.102Z,16.00
2023-02-11T20:27:43.059Z,16.00
2023-02-11T20:29:17.039Z,15.27
2023-02-11T20:30:57.177Z,14.85
2023-02-11T20:32:32.763Z,15.30
2023-02-11T20:34:04.625Z,15.98
2023-02-11T20:35:36.443Z,16.02
2023-02-11T20:37:08.889Z,15.73
2023-02-11T20:38:41.435Z,15.18
2023-02-11T20:40:13.319Z,15.23
2023-02-11T20:41:46.332Z,14.38
2023-02-11T20:43:19.152Z,15.60
2023-02-11T20:44:51.178Z,14.90
2023-02-11T20:46:28.202Z,14.50
2023-02-11T20:48:03.711Z,15.32
2023-02-11T20:49:35.369Z,14.85
2023-02-11T20:51:10.778Z,16.95
2023-02-11T20:52:42.505Z,15.05